sensor_id;sensor_type;location;lat;lon;timestamp;pressure;altitude;pressure_sealevel;temperature;humidity
43683;BME280;29285;52.128;21.060;2023-05-12T00:01:12;101000.74;;;13.84;40.14
43683;BME280;29285;52.128;21.060;2023-05-12T00:06:16;101000.87;;;13.77;40.37
43683;BME280;29285;52.128;21.060;2023-05-12T00:11:23;101007.68;;;13.68;40.61
43683;BME280;29285;52.128;21.060;2023-05-12T00:16:25;101006.95;;;13.59;40.70
43683;BME280;29285;52.128;21.060;2023-05-12T00:21:26;101007.23;;;13.53;40.81
43683;BME280;29285;52.128;21.060;2023-05-12T00:26:28;101006.79;;;13.48;41.01
43683;BME280;29285;52.128;21.060;2023-05-12T00:31:41;101008.27;;;13.42;40.96
43683;BME280;29285;52.128;21.060;2023-05-12T00:36:42;101009.27;;;13.35;41.15
43683;BME280;29285;52.128;21.060;2023-05-12T00:41:44;101011.94;;;13.31;41.25
43683;BME280;29285;52.128;21.060;2023-05-12T00:47:05;101012.00;;;13.27;41.44
43683;BME280;29285;52.128;21.060;2023-05-12T00:52:06;101016.77;;;13.23;41.63
43683;BME280;29285;52.128;21.060;2023-05-12T00:57:11;101020.84;;;13.19;41.74
43683;BME280;29285;52.128;21.060;2023-05-12T01:02:16;101025.75;;;13.17;41.79
43683;BME280;29285;52.128;21.060;2023-05-12T01:07:29;101031.77;;;13.12;41.89
43683;BME280;29285;52.128;21.060;2023-05-12T01:12:31;101032.20;;;13.06;42.12
43683;BME280;29285;52.128;21.060;2023-05-12T01:17:34;101033.31;;;13.01;42.25
43683;BME280;29285;52.128;21.060;2023-05-12T01:22:37;101035.13;;;12.96;42.38
43683;BME280;29285;52.128;21.060;2023-05-12T01:27:51;101035.70;;;12.91;42.50
43683;BME280;29285;52.128;21.060;2023-05-12T01:33:02;101034.56;;;12.86;42.72
43683;BME280;29285;52.128;21.060;2023-05-12T01:38:03;101036.04;;;12.81;42.82
43683;BME280;29285;52.128;21.060;2023-05-12T01:43:04;101040.30;;;12.76;43.08
43683;BME280;29285;52.128;21.060;2023-05-12T01:48:06;101041.73;;;12.73;43.02
43683;BME280;29285;52.128;21.060;2023-05-12T01:53:11;101041.48;;;12.65;43.30
43683;BME280;29285;52.128;21.060;2023-05-12T01:58:14;101044.39;;;12.56;43.25
43683;BME280;29285;52.128;21.060;2023-05-12T02:03:16;101047.42;;;12.50;43.64
43683;BME280;29285;52.128;21.060;2023-05-12T02:08:17;101048.52;;;12.46;43.59
43683;BME280;29285;52.128;21.060;2023-05-12T02:13:29;101044.55;;;12.42;43.86
43683;BME280;29285;52.128;21.060;2023-05-12T02:18:31;101045.47;;;12.39;43.86
43683;BME280;29285;52.128;21.060;2023-05-12T02:23:32;101042.76;;;12.33;44.05
43683;BME280;29285;52.128;21.060;2023-05-12T02:28:34;101042.33;;;12.25;44.23
43683;BME280;29285;52.128;21.060;2023-05-12T02:33:41;101044.65;;;12.20;44.52
43683;BME280;29285;52.128;21.060;2023-05-12T02:38:48;101047.66;;;12.15;44.72
43683;BME280;29285;52.128;21.060;2023-05-12T02:43:56;101052.26;;;12.07;44.93
43683;BME280;29285;52.128;21.060;2023-05-12T02:48:57;101057.17;;;12.00;44.90
43683;BME280;29285;52.128;21.060;2023-05-12T02:54:07;101061.91;;;11.97;45.22
43683;BME280;29285;52.128;21.060;2023-05-12T02:59:08;101067.54;;;11.90;45.33
43683;BME280;29285;52.128;21.060;2023-05-12T03:04:15;101071.04;;;11.88;45.68
43683;BME280;29285;52.128;21.060;2023-05-12T03:09:16;101070.70;;;11.86;45.85
43683;BME280;29285;52.128;21.060;2023-05-12T03:14:18;101069.85;;;11.84;45.90
43683;BME280;29285;52.128;21.060;2023-05-12T03:19:28;101071.95;;;11.82;46.36
43683;BME280;29285;52.128;21.060;2023-05-12T03:24:30;101069.52;;;11.81;46.39
43683;BME280;29285;52.128;21.060;2023-05-12T03:29:32;101070.05;;;11.82;46.57
43683;BME280;29285;52.128;21.060;2023-05-12T03:34:34;101071.42;;;11.84;46.92
43683;BME280;29285;52.128;21.060;2023-05-12T03:39:38;101076.27;;;11.87;47.12
43683;BME280;29285;52.128;21.060;2023-05-12T03:44:39;101079.19;;;11.91;47.26
43683;BME280;29285;52.128;21.060;2023-05-12T03:49:41;101087.30;;;11.96;47.40
43683;BME280;29285;52.128;21.060;2023-05-12T03:54:42;101091.59;;;12.03;47.54
43683;BME280;29285;52.128;21.060;2023-05-12T03:59:43;101091.20;;;12.10;47.78
43683;BME280;29285;52.128;21.060;2023-05-12T04:04:47;101092.16;;;12.17;47.87
43683;BME280;29285;52.128;21.060;2023-05-12T04:09:48;101096.75;;;12.26;48.18
43683;BME280;29285;52.128;21.060;2023-05-12T04:14:50;101100.45;;;12.38;48.48
43683;BME280;29285;52.128;21.060;2023-05-12T04:19:54;101102.95;;;12.48;48.54
43683;BME280;29285;52.128;21.060;2023-05-12T04:24:55;101109.98;;;12.57;48.60
43683;BME280;29285;52.128;21.060;2023-05-12T04:29:57;101111.14;;;12.63;48.57
43683;BME280;29285;52.128;21.060;2023-05-12T04:34:58;101110.27;;;12.77;48.73
43683;BME280;29285;52.128;21.060;2023-05-12T04:40:00;101109.83;;;12.85;48.91
43683;BME280;29285;52.128;21.060;2023-05-12T04:45:04;101113.42;;;12.89;48.85
43683;BME280;29285;52.128;21.060;2023-05-12T04:50:16;101113.29;;;12.99;49.03
43683;BME280;29285;52.128;21.060;2023-05-12T04:55:17;101113.14;;;13.11;49.26
43683;BME280;29285;52.128;21.060;2023-05-12T05:00:18;101119.20;;;13.24;49.31
43683;BME280;29285;52.128;21.060;2023-05-12T05:05:19;101119.23;;;13.35;49.47
43683;BME280;29285;52.128;21.060;2023-05-12T05:10:21;101125.02;;;13.43;49.62
43683;BME280;29285;52.128;21.060;2023-05-12T05:15:22;101128.50;;;13.57;49.69
43683;BME280;29285;52.128;21.060;2023-05-12T05:20:23;101132.46;;;13.71;49.90
43683;BME280;29285;52.128;21.060;2023-05-12T05:25:24;101138.00;;;13.84;50.00
43683;BME280;29285;52.128;21.060;2023-05-12T05:30:26;101133.89;;;14.01;50.40
43683;BME280;29285;52.128;21.060;2023-05-12T05:35:28;101139.02;;;14.16;50.58
43683;BME280;29285;52.128;21.060;2023-05-12T05:40:29;101142.38;;;14.33;50.86
43683;BME280;29285;52.128;21.060;2023-05-12T05:45:31;101143.91;;;14.44;50.90
43683;BME280;29285;52.128;21.060;2023-05-12T05:50:32;101150.81;;;14.57;50.99
43683;BME280;29285;52.128;21.060;2023-05-12T05:55:33;101153.38;;;14.68;51.10
43683;BME280;29285;52.128;21.060;2023-05-12T06:00:34;101154.39;;;14.81;51.33
43683;BME280;29285;52.128;21.060;2023-05-12T06:05:36;101155.46;;;14.88;51.35
43683;BME280;29285;52.128;21.060;2023-05-12T06:10:38;101160.38;;;14.96;51.19
43683;BME280;29285;52.128;21.060;2023-05-12T06:15:40;101160.66;;;15.07;51.24
43683;BME280;29285;52.128;21.060;2023-05-12T06:20:41;101164.92;;;15.20;51.31
43683;BME280;29285;52.128;21.060;2023-05-12T06:25:42;101165.50;;;15.33;51.51
43683;BME280;29285;52.128;21.060;2023-05-12T06:30:43;101166.45;;;15.45;51.71
43683;BME280;29285;52.128;21.060;2023-05-12T06:35:45;101166.77;;;15.55;51.76
43683;BME280;29285;52.128;21.060;2023-05-12T06:40:46;101164.63;;;15.64;51.78
43683;BME280;29285;52.128;21.060;2023-05-12T06:45:47;101173.84;;;15.73;51.86
43683;BME280;29285;52.128;21.060;2023-05-12T06:50:49;101168.02;;;15.83;51.84
43683;BME280;29285;52.128;21.060;2023-05-12T06:55:50;101167.98;;;15.99;52.10
43683;BME280;29285;52.128;21.060;2023-05-12T07:00:53;101169.73;;;16.13;52.42
43683;BME280;29285;52.128;21.060;2023-05-12T07:05:54;101166.45;;;16.25;52.49
43683;BME280;29285;52.128;21.060;2023-05-12T07:10:58;101168.25;;;16.37;52.51
43683;BME280;29285;52.128;21.060;2023-05-12T07:16:00;101162.14;;;16.49;52.68
43683;BME280;29285;52.128;21.060;2023-05-12T07:21:01;101161.46;;;16.61;52.67
43683;BME280;29285;52.128;21.060;2023-05-12T07:26:04;101158.82;;;16.74;52.86
43683;BME280;29285;52.128;21.060;2023-05-12T07:31:06;101158.35;;;16.84;52.72
43683;BME280;29285;52.128;21.060;2023-05-12T07:36:08;101156.54;;;16.98;52.63
43683;BME280;29285;52.128;21.060;2023-05-12T07:41:09;101157.46;;;17.09;52.56
43683;BME280;29285;52.128;21.060;2023-05-12T07:46:10;101157.73;;;17.17;52.28
43683;BME280;29285;52.128;21.060;2023-05-12T07:51:12;101158.42;;;17.29;52.11
43683;BME280;29285;52.128;21.060;2023-05-12T07:56:13;101165.15;;;17.45;52.04
43683;BME280;29285;52.128;21.060;2023-05-12T08:01:14;101166.71;;;17.56;51.73
43683;BME280;29285;52.128;21.060;2023-05-12T08:06:16;101168.31;;;17.67;51.38
43683;BME280;29285;52.128;21.060;2023-05-12T08:11:17;101163.62;;;17.76;50.91
43683;BME280;29285;52.128;21.060;2023-05-12T08:16:18;101167.64;;;17.88;50.34
43683;BME280;29285;52.128;21.060;2023-05-12T08:21:19;101166.00;;;17.95;49.79
43683;BME280;29285;52.128;21.060;2023-05-12T08:26:20;101175.27;;;18.01;49.05
43683;BME280;29285;52.128;21.060;2023-05-12T08:31:22;101169.35;;;18.05;48.52
43683;BME280;29285;52.128;21.060;2023-05-12T08:36:23;101166.88;;;18.11;47.92
43683;BME280;29285;52.128;21.060;2023-05-12T08:41:40;101161.08;;;18.21;47.49
43683;BME280;29285;52.128;21.060;2023-05-12T08:46:42;101160.25;;;18.30;47.12
43683;BME280;29285;52.128;21.060;2023-05-12T08:51:44;101157.54;;;18.42;46.79
43683;BME280;29285;52.128;21.060;2023-05-12T08:56:48;101158.21;;;18.53;46.47
43683;BME280;29285;52.128;21.060;2023-05-12T09:01:51;101150.92;;;18.60;46.01
43683;BME280;29285;52.128;21.060;2023-05-12T09:06:54;101149.69;;;18.65;45.46
43683;BME280;29285;52.128;21.060;2023-05-12T09:11:56;101156.54;;;18.70;45.02
43683;BME280;29285;52.128;21.060;2023-05-12T09:17:02;101150.15;;;18.76;44.49
43683;BME280;29285;52.128;21.060;2023-05-12T09:22:03;101144.84;;;18.82;44.19
43683;BME280;29285;52.128;21.060;2023-05-12T09:27:05;101151.36;;;18.86;43.55
43683;BME280;29285;52.128;21.060;2023-05-12T09:32:07;101160.07;;;18.93;43.03
43683;BME280;29285;52.128;21.060;2023-05-12T09:37:08;101153.50;;;19.00;42.53
43683;BME280;29285;52.128;21.060;2023-05-12T09:42:10;101141.55;;;19.04;42.11
43683;BME280;29285;52.128;21.060;2023-05-12T09:47:12;101142.08;;;19.04;41.55
43683;BME280;29285;52.128;21.060;2023-05-12T09:52:19;101140.61;;;19.11;41.17
43683;BME280;29285;52.128;21.060;2023-05-12T09:57:22;101141.36;;;19.19;40.84
43683;BME280;29285;52.128;21.060;2023-05-12T10:02:24;101138.42;;;19.27;40.56
43683;BME280;29285;52.128;21.060;2023-05-12T10:07:27;101132.86;;;19.34;40.23
43683;BME280;29285;52.128;21.060;2023-05-12T10:12:29;101131.48;;;19.41;40.02
43683;BME280;29285;52.128;21.060;2023-05-12T10:17:30;101136.63;;;19.45;39.61
43683;BME280;29285;52.128;21.060;2023-05-12T10:22:38;101132.02;;;19.51;39.21
43683;BME280;29285;52.128;21.060;2023-05-12T10:27:40;101132.98;;;19.61;38.98
43683;BME280;29285;52.128;21.060;2023-05-12T10:32:42;101123.69;;;19.74;38.68
43683;BME280;29285;52.128;21.060;2023-05-12T10:37:45;101119.33;;;19.85;38.37
43683;BME280;29285;52.128;21.060;2023-05-12T10:42:49;101111.88;;;20.04;38.22
43683;BME280;29285;52.128;21.060;2023-05-12T10:47:51;101119.91;;;20.21;38.05
43683;BME280;29285;52.128;21.060;2023-05-12T10:52:56;101117.20;;;20.39;37.76
43683;BME280;29285;52.128;21.060;2023-05-12T10:58:08;101103.66;;;20.54;37.31
43683;BME280;29285;52.128;21.060;2023-05-12T11:03:14;101102.55;;;20.74;37.04
43683;BME280;29285;52.128;21.060;2023-05-12T11:08:17;101101.98;;;20.91;36.78
43683;BME280;29285;52.128;21.060;2023-05-12T11:13:20;101106.20;;;21.10;36.56
43683;BME280;29285;52.128;21.060;2023-05-12T11:18:22;101103.45;;;21.27;36.33
43683;BME280;29285;52.128;21.060;2023-05-12T11:23:27;101104.64;;;21.46;35.99
43683;BME280;29285;52.128;21.060;2023-05-12T11:28:41;101099.65;;;21.61;35.65
43683;BME280;29285;52.128;21.060;2023-05-12T11:33:42;101099.73;;;21.81;35.37
43683;BME280;29285;52.128;21.060;2023-05-12T11:38:48;101096.41;;;22.08;35.31
43683;BME280;29285;52.128;21.060;2023-05-12T11:43:50;101098.48;;;22.19;34.98
43683;BME280;29285;52.128;21.060;2023-05-12T11:48:58;101100.05;;;22.37;34.58
43683;BME280;29285;52.128;21.060;2023-05-12T11:54:00;101094.23;;;22.53;34.25
43683;BME280;29285;52.128;21.060;2023-05-12T11:59:01;101092.23;;;22.77;34.04
43683;BME280;29285;52.128;21.060;2023-05-12T12:04:02;101087.52;;;22.98;33.79
43683;BME280;29285;52.128;21.060;2023-05-12T12:09:03;101099.98;;;22.87;33.36
43683;BME280;29285;52.128;21.060;2023-05-12T12:14:04;101096.20;;;22.88;33.02
43683;BME280;29285;52.128;21.060;2023-05-12T12:19:05;101087.27;;;22.93;32.64
43683;BME280;29285;52.128;21.060;2023-05-12T12:24:08;101084.91;;;23.01;32.38
43683;BME280;29285;52.128;21.060;2023-05-12T12:29:10;101083.53;;;23.06;32.05
43683;BME280;29285;52.128;21.060;2023-05-12T12:34:11;101085.14;;;23.22;31.98
43683;BME280;29285;52.128;21.060;2023-05-12T12:39:12;101079.42;;;23.38;31.71
43683;BME280;29285;52.128;21.060;2023-05-12T12:44:13;101069.42;;;23.49;31.44
43683;BME280;29285;52.128;21.060;2023-05-12T12:49:14;101074.62;;;23.63;31.23
43683;BME280;29285;52.128;21.060;2023-05-12T12:54:15;101067.33;;;23.85;31.13
43683;BME280;29285;52.128;21.060;2023-05-12T12:59:16;101064.69;;;23.99;30.86
43683;BME280;29285;52.128;21.060;2023-05-12T13:04:17;101062.20;;;24.08;30.67
43683;BME280;29285;52.128;21.060;2023-05-12T13:09:22;101057.87;;;24.18;30.36
43683;BME280;29285;52.128;21.060;2023-05-12T13:14:24;101053.48;;;24.38;30.18
43683;BME280;29285;52.128;21.060;2023-05-12T13:19:26;101060.35;;;24.61;30.09
43683;BME280;29285;52.128;21.060;2023-05-12T13:24:27;101051.89;;;24.68;29.94
43683;BME280;29285;52.128;21.060;2023-05-12T13:29:29;101042.81;;;24.86;29.62
43683;BME280;29285;52.128;21.060;2023-05-12T13:34:30;101046.98;;;24.90;29.47
43683;BME280;29285;52.128;21.060;2023-05-12T13:39:32;101040.08;;;25.01;29.26
43683;BME280;29285;52.128;21.060;2023-05-12T13:44:33;101041.73;;;25.16;29.17
43683;BME280;29285;52.128;21.060;2023-05-12T13:49:34;101037.96;;;25.12;28.91
43683;BME280;29285;52.128;21.060;2023-05-12T13:54:36;101032.20;;;25.05;28.78
43683;BME280;29285;52.128;21.060;2023-05-12T13:59:37;101035.38;;;24.60;28.20
43683;BME280;29285;52.128;21.060;2023-05-12T14:04:38;101029.33;;;24.15;27.99
43683;BME280;29285;52.128;21.060;2023-05-12T14:09:39;101030.48;;;23.96;28.02
43683;BME280;29285;52.128;21.060;2023-05-12T14:14:41;101026.70;;;24.15;28.34
43683;BME280;29285;52.128;21.060;2023-05-12T14:19:49;101029.93;;;24.54;29.44
43683;BME280;29285;52.128;21.060;2023-05-12T14:24:50;101032.95;;;24.79;46.44
43683;BME280;29285;52.128;21.060;2023-05-12T14:29:52;101032.42;;;24.79;69.77
43683;BME280;29285;52.128;21.060;2023-05-12T14:34:56;101033.88;;;24.70;82.00
43683;BME280;29285;52.128;21.060;2023-05-12T14:39:58;101034.72;;;24.65;81.24
43683;BME280;29285;52.128;21.060;2023-05-12T14:44:59;101031.38;;;24.70;72.21
43683;BME280;29285;52.128;21.060;2023-05-12T14:50:02;101030.59;;;24.91;64.17
43683;BME280;29285;52.128;21.060;2023-05-12T14:55:09;101027.73;;;24.92;57.50
43683;BME280;29285;52.128;21.060;2023-05-12T15:00:14;101024.33;;;24.87;52.59
43683;BME280;29285;52.128;21.060;2023-05-12T15:05:15;101027.00;;;25.00;49.21
43683;BME280;29285;52.128;21.060;2023-05-12T15:10:16;101020.94;;;25.00;46.22
43683;BME280;29285;52.128;21.060;2023-05-12T15:15:18;101028.90;;;25.01;43.84
43683;BME280;29285;52.128;21.060;2023-05-12T15:20:19;101024.58;;;25.42;45.54
43683;BME280;29285;52.128;21.060;2023-05-12T15:25:20;101032.97;;;25.36;90.62
43683;BME280;29285;52.128;21.060;2023-05-12T15:30:21;101041.37;;;24.92;100.00
43683;BME280;29285;52.128;21.060;2023-05-12T15:35:23;101036.79;;;24.24;100.00
43683;BME280;29285;52.128;21.060;2023-05-12T15:40:24;101033.50;;;24.31;100.00
43683;BME280;29285;52.128;21.060;2023-05-12T15:45:26;101026.61;;;24.50;100.00
43683;BME280;29285;52.128;21.060;2023-05-12T15:50:27;101020.63;;;24.75;97.88
43683;BME280;29285;52.128;21.060;2023-05-12T15:55:28;101023.41;;;24.59;91.96
43683;BME280;29285;52.128;21.060;2023-05-12T16:00:31;101021.84;;;24.84;100.00
43683;BME280;29285;52.128;21.060;2023-05-12T16:05:32;101028.69;;;25.33;100.00
43683;BME280;29285;52.128;21.060;2023-05-12T16:10:37;101033.10;;;25.29;100.00
43683;BME280;29285;52.128;21.060;2023-05-12T16:15:39;101039.54;;;25.65;100.00
43683;BME280;29285;52.128;21.060;2023-05-12T16:20:40;101041.88;;;26.14;100.00
43683;BME280;29285;52.128;21.060;2023-05-12T16:25:43;101045.05;;;26.35;100.00
43683;BME280;29285;52.128;21.060;2023-05-12T16:30:45;101035.39;;;25.87;100.00
43683;BME280;29285;52.128;21.060;2023-05-12T16:35:46;101033.51;;;25.49;100.00
43683;BME280;29285;52.128;21.060;2023-05-12T16:40:48;101028.21;;;25.83;100.00
43683;BME280;29285;52.128;21.060;2023-05-12T16:46:00;101019.52;;;26.23;100.00
43683;BME280;29285;52.128;21.060;2023-05-12T16:51:07;101023.69;;;26.55;100.00
43683;BME280;29285;52.128;21.060;2023-05-12T16:56:09;101024.39;;;26.72;96.46
43683;BME280;29285;52.128;21.060;2023-05-12T17:01:10;101025.71;;;26.93;89.98
43683;BME280;29285;52.128;21.060;2023-05-12T17:06:11;101027.30;;;26.98;84.26
43683;BME280;29285;52.128;21.060;2023-05-12T17:11:13;101032.08;;;26.89;78.55
43683;BME280;29285;52.128;21.060;2023-05-12T17:16:14;101029.66;;;26.78;73.68
43683;BME280;29285;52.128;21.060;2023-05-12T17:21:16;101032.08;;;26.62;69.00
43683;BME280;29285;52.128;21.060;2023-05-12T17:26:17;101031.41;;;26.42;64.75
43683;BME280;29285;52.128;21.060;2023-05-12T17:31:18;101031.51;;;26.15;61.14
43683;BME280;29285;52.128;21.060;2023-05-12T17:36:19;101030.89;;;25.64;57.68
43683;BME280;29285;52.128;21.060;2023-05-12T17:41:20;101036.66;;;24.90;54.03
43683;BME280;29285;52.128;21.060;2023-05-12T17:46:21;101039.23;;;24.22;51.20
43683;BME280;29285;52.128;21.060;2023-05-12T17:51:22;101038.10;;;23.61;49.06
43683;BME280;29285;52.128;21.060;2023-05-12T17:56:24;101047.30;;;23.12;47.35
43683;BME280;29285;52.128;21.060;2023-05-12T18:01:25;101044.54;;;22.66;45.88
43683;BME280;29285;52.128;21.060;2023-05-12T18:06:26;101050.75;;;22.23;44.60
43683;BME280;29285;52.128;21.060;2023-05-12T18:11:28;101051.20;;;21.81;43.53
43683;BME280;29285;52.128;21.060;2023-05-12T18:16:30;101060.70;;;21.49;42.79
43683;BME280;29285;52.128;21.060;2023-05-12T18:21:32;101066.09;;;21.15;42.11
43683;BME280;29285;52.128;21.060;2023-05-12T18:26:33;101065.16;;;20.82;41.51
43683;BME280;29285;52.128;21.060;2023-05-12T18:31:34;101073.32;;;20.51;41.01
43683;BME280;29285;52.128;21.060;2023-05-12T18:36:39;101079.12;;;20.24;40.77
43683;BME280;29285;52.128;21.060;2023-05-12T18:41:41;101083.36;;;19.99;40.60
43683;BME280;29285;52.128;21.060;2023-05-12T18:46:42;101091.42;;;19.70;40.44
43683;BME280;29285;52.128;21.060;2023-05-12T18:51:43;101091.26;;;19.44;40.49
43683;BME280;29285;52.128;21.060;2023-05-12T18:56:44;101097.96;;;19.27;40.66
43683;BME280;29285;52.128;21.060;2023-05-12T19:01:47;101095.98;;;19.01;40.61
43683;BME280;29285;52.128;21.060;2023-05-12T19:06:48;101097.69;;;18.79;40.66
43683;BME280;29285;52.128;21.060;2023-05-12T19:11:49;101098.40;;;18.60;40.81
43683;BME280;29285;52.128;21.060;2023-05-12T19:16:50;101099.97;;;18.46;41.06
43683;BME280;29285;52.128;21.060;2023-05-12T19:21:51;101100.96;;;18.28;41.19
43683;BME280;29285;52.128;21.060;2023-05-12T19:26:52;101102.92;;;18.12;41.37
43683;BME280;29285;52.128;21.060;2023-05-12T19:31:53;101111.07;;;17.99;41.56
43683;BME280;29285;52.128;21.060;2023-05-12T19:36:55;101106.02;;;17.88;41.79
43683;BME280;29285;52.128;21.060;2023-05-12T19:42:03;101111.81;;;17.77;42.01
43683;BME280;29285;52.128;21.060;2023-05-12T19:47:04;101110.45;;;17.65;42.27
43683;BME280;29285;52.128;21.060;2023-05-12T19:52:05;101108.73;;;17.48;42.37
43683;BME280;29285;52.128;21.060;2023-05-12T19:57:07;101111.50;;;17.33;42.55
43683;BME280;29285;52.128;21.060;2023-05-12T20:02:12;101115.70;;;17.22;42.85
43683;BME280;29285;52.128;21.060;2023-05-12T20:07:14;101115.28;;;17.06;43.04
43683;BME280;29285;52.128;21.060;2023-05-12T20:12:15;101115.48;;;16.93;43.27
43683;BME280;29285;52.128;21.060;2023-05-12T20:17:16;101118.48;;;16.81;43.48
43683;BME280;29285;52.128;21.060;2023-05-12T20:22:17;101119.52;;;16.75;43.86
43683;BME280;29285;52.128;21.060;2023-05-12T20:27:19;101117.05;;;16.70;44.25
43683;BME280;29285;52.128;21.060;2023-05-12T20:32:23;101116.34;;;16.64;44.52
43683;BME280;29285;52.128;21.060;2023-05-12T20:37:24;101115.19;;;16.56;44.71
43683;BME280;29285;52.128;21.060;2023-05-12T20:42:25;101112.99;;;16.46;45.01
43683;BME280;29285;52.128;21.060;2023-05-12T20:47:34;101114.57;;;16.40;45.31
43683;BME280;29285;52.128;21.060;2023-05-12T20:52:40;101114.33;;;16.30;45.45
43683;BME280;29285;52.128;21.060;2023-05-12T20:57:44;101115.56;;;16.17;45.62
43683;BME280;29285;52.128;21.060;2023-05-12T21:02:45;101118.95;;;16.08;45.83
43683;BME280;29285;52.128;21.060;2023-05-12T21:07:49;101123.13;;;16.02;46.14
43683;BME280;29285;52.128;21.060;2023-05-12T21:12:53;101124.84;;;15.96;46.37
43683;BME280;29285;52.128;21.060;2023-05-12T21:18:08;101124.48;;;15.89;46.62
43683;BME280;29285;52.128;21.060;2023-05-12T21:23:14;101129.04;;;15.81;46.85
43683;BME280;29285;52.128;21.060;2023-05-12T21:28:18;101129.36;;;15.68;47.02
43683;BME280;29285;52.128;21.060;2023-05-12T21:33:20;101129.20;;;15.61;47.33
43683;BME280;29285;52.128;21.060;2023-05-12T21:38:21;101133.09;;;15.58;47.92
43683;BME280;29285;52.128;21.060;2023-05-12T21:43:22;101135.27;;;15.48;48.14
43683;BME280;29285;52.128;21.060;2023-05-12T21:48:23;101140.15;;;15.41;48.35
43683;BME280;29285;52.128;21.060;2023-05-12T21:53:25;101142.30;;;15.39;48.64
43683;BME280;29285;52.128;21.060;2023-05-12T21:58:27;101140.55;;;15.38;48.89
43683;BME280;29285;52.128;21.060;2023-05-12T22:03:32;101144.52;;;15.34;49.00
43683;BME280;29285;52.128;21.060;2023-05-12T22:08:43;101146.54;;;15.30;49.26
43683;BME280;29285;52.128;21.060;2023-05-12T22:13:49;101145.92;;;15.26;49.32
43683;BME280;29285;52.128;21.060;2023-05-12T22:18:53;101146.13;;;15.25;49.56
43683;BME280;29285;52.128;21.060;2023-05-12T22:23:55;101143.23;;;15.21;49.64
43683;BME280;29285;52.128;21.060;2023-05-12T22:28:59;101141.61;;;15.15;49.77
43683;BME280;29285;52.128;21.060;2023-05-12T22:34:01;101145.45;;;15.07;49.75
43683;BME280;29285;52.128;21.060;2023-05-12T22:39:02;101142.31;;;14.99;50.07
43683;BME280;29285;52.128;21.060;2023-05-12T22:44:08;101141.09;;;14.91;50.14
43683;BME280;29285;52.128;21.060;2023-05-12T22:49:09;101138.19;;;14.79;50.46
43683;BME280;29285;52.128;21.060;2023-05-12T22:54:11;101135.17;;;14.72;50.61
43683;BME280;29285;52.128;21.060;2023-05-12T22:59:12;101137.46;;;14.61;50.85
43683;BME280;29285;52.128;21.060;2023-05-12T23:04:13;101133.66;;;14.51;51.02
43683;BME280;29285;52.128;21.060;2023-05-12T23:09:14;101138.11;;;14.47;51.39
43683;BME280;29285;52.128;21.060;2023-05-12T23:14:15;101141.73;;;14.39;51.60
43683;BME280;29285;52.128;21.060;2023-05-12T23:19:16;101143.66;;;14.29;51.91
43683;BME280;29285;52.128;21.060;2023-05-12T23:24:18;101143.13;;;14.21;52.10
43683;BME280;29285;52.128;21.060;2023-05-12T23:29:19;101144.14;;;14.12;52.40
43683;BME280;29285;52.128;21.060;2023-05-12T23:34:20;101143.96;;;14.03;52.77
43683;BME280;29285;52.128;21.060;2023-05-12T23:39:21;101143.40;;;13.95;52.99
43683;BME280;29285;52.128;21.060;2023-05-12T23:44:22;101138.29;;;13.88;53.30
43683;BME280;29285;52.128;21.060;2023-05-12T23:49:24;101135.93;;;13.83;53.72
43683;BME280;29285;52.128;21.060;2023-05-12T23:54:26;101134.44;;;13.79;54.12
43683;BME280;29285;52.128;21.060;2023-05-12T23:59:27;101134.70;;;13.73;54.54
